Time;durP1;ratioP1;P1;durP2;ratioP2;P2;SDS_P1;SDS_P2;PMS_P1;PMS_P2;Temp;Humidity;BMP_temperature;BMP_pressure;BME280_temperature;BME280_humidity;BME280_pressure;Samples;Min_cycle;Max_cycle;Signal;HPM_P1;HPM_P2
2021/06/19 00:01:39;;;;;;;17.98;4.43;;;;;;;;;;4881757;29;20039;-80
2021/06/19 00:04:25;;;;;;;12.02;3.45;;;;;;;;;;4898630;29;20035;-81
2021/06/19 00:07:10;;;;;;;15.77;4.20;;;;;;;;;;4894358;29;20423;-80
2021/06/19 00:09:55;;;;;;;19.17;4.60;;;;;;;;;;4897667;29;20647;-80
2021/06/19 00:12:40;;;;;;;13.50;4.28;;;;;;;;;;4897221;29;20040;-80
2021/06/19 00:15:26;;;;;;;12.63;4.07;;;;;;;;;;4896517;29;20024;-80
2021/06/19 00:18:11;;;;;;;14.65;4.65;;;;;;;;;;4894594;29;20119;-81
2021/06/19 00:20:56;;;;;;;13.40;4.45;;;;;;;;;;4892729;29;20119;-81
2021/06/19 00:23:41;;;;;;;10.80;4.22;;;;;;;;;;4896771;29;20314;-80
2021/06/19 00:26:26;;;;;;;12.52;4.80;;;;;;;;;;4889347;29;20020;-80
2021/06/19 00:29:13;;;;;;;17.02;5.03;;;;;;;;;;4890805;29;20036;-82
2021/06/19 00:31:58;;;;;;;21.77;6.07;;;;;;;;;;4894257;29;20126;-81
2021/06/19 00:34:44;;;;;;;22.25;5.72;;;;;;;;;;4894546;29;20467;-81
2021/06/19 00:37:29;;;;;;;14.77;5.82;;;;;;;;;;4892647;29;20514;-81
2021/06/19 00:40:15;;;;;;;15.77;6.82;;;;;;;;;;4895797;29;20182;-81
2021/06/19 00:43:02;;;;;;;25.23;5.40;;;;;;;;;;4895040;29;20036;-81
2021/06/19 00:45:47;;;;;;;16.00;4.20;;;;;;;;;;4879521;29;20032;-81
2021/06/19 00:48:32;;;;;;;16.10;4.95;;;;;;;;;;4886156;29;20471;-82
2021/06/19 00:51:18;;;;;;;18.88;5.10;;;;;;;;;;4890409;29;20050;-82
2021/06/19 00:54:04;;;;;;;14.48;4.93;;;;;;;;;;4895972;29;20026;-82
2021/06/19 00:56:50;;;;;;;14.27;4.78;;;;;;;;;;4895049;29;20164;-82
2021/06/19 00:59:36;;;;;;;17.55;4.63;;;;;;;;;;4892522;29;20115;-82
2021/06/19 01:02:21;;;;;;;15.68;4.18;;;;;;;;;;4892564;29;20132;-81
2021/06/19 01:05:08;;;;;;;10.93;3.83;;;;;;;;;;4882729;29;20115;-81
2021/06/19 01:07:54;;;;;;;12.13;4.55;;;;;;;;;;4895270;29;20028;-81
2021/06/19 01:10:39;;;;;;;11.40;3.75;;;;;;;;;;4896682;29;20028;-81
2021/06/19 01:13:25;;;;;;;18.08;5.18;;;;;;;;;;4888827;29;20035;-81
2021/06/19 01:16:10;;;;;;;18.10;4.82;;;;;;;;;;4892058;29;20051;-81
2021/06/19 01:18:55;;;;;;;22.88;7.45;;;;;;;;;;4893467;29;20123;-81
2021/06/19 01:21:41;;;;;;;12.05;4.38;;;;;;;;;;4886920;29;20028;-80
2021/06/19 01:24:30;;;;;;;15.38;4.68;;;;;;;;;;4886162;29;20024;-80
2021/06/19 01:27:16;;;;;;;13.70;4.70;;;;;;;;;;4890458;29;20116;-80
2021/06/19 01:30:02;;;;;;;13.70;4.50;;;;;;;;;;4893131;29;20119;-80
2021/06/19 01:32:48;;;;;;;18.88;5.45;;;;;;;;;;4892680;29;20567;-81
2021/06/19 01:35:34;;;;;;;17.25;5.80;;;;;;;;;;4894473;29;20028;-81
2021/06/19 01:38:19;;;;;;;16.25;4.90;;;;;;;;;;4889619;29;20036;-81
2021/06/19 01:41:05;;;;;;;15.68;4.57;;;;;;;;;;4897425;29;20251;-81
2021/06/19 01:43:56;;;;;;;12.70;5.07;;;;;;;;;;4890433;29;20079;-81
2021/06/19 01:46:42;;;;;;;17.80;6.03;;;;;;;;;;4896632;29;20095;-81
2021/06/19 01:49:37;;;;;;;20.25;6.20;;;;;;;;;;4889358;29;20047;-80
2021/06/19 01:52:23;;;;;;;16.15;5.10;;;;;;;;;;4890352;29;20036;-81
2021/06/19 01:55:09;;;;;;;12.60;4.93;;;;;;;;;;4894643;29;20128;-80
2021/06/19 01:57:55;;;;;;;13.15;5.07;;;;;;;;;;4895372;29;20036;-80
2021/06/19 02:00:41;;;;;;;16.60;5.72;;;;;;;;;;4907408;29;20040;-80
2021/06/19 02:03:26;;;;;;;14.20;6.22;;;;;;;;;;4896304;29;20024;-81
2021/06/19 02:06:11;;;;;;;13.85;5.43;;;;;;;;;;4893108;29;20024;-81
2021/06/19 02:09:03;;;;;;;15.55;6.10;;;;;;;;;;4894737;29;20032;-82
2021/06/19 02:11:49;;;;;;;16.73;5.13;;;;;;;;;;4896812;29;20695;-84
2021/06/19 02:14:34;;;;;;;16.20;6.93;;;;;;;;;;4893691;29;20115;-81
2021/06/19 02:17:19;;;;;;;10.02;4.78;;;;;;;;;;4894406;29;20020;-81
2021/06/19 02:20:05;;;;;;;14.25;6.55;;;;;;;;;;4893523;29;20032;-81
2021/06/19 02:22:51;;;;;;;14.77;5.57;;;;;;;;;;4896552;29;20054;-81
2021/06/19 02:25:36;;;;;;;15.70;4.80;;;;;;;;;;4891221;29;20024;-81
2021/06/19 02:28:25;;;;;;;11.73;5.55;;;;;;;;;;4895448;29;20032;-80
2021/06/19 02:31:10;;;;;;;20.42;6.03;;;;;;;;;;4877378;29;20582;-81
2021/06/19 02:33:55;;;;;;;14.25;6.10;;;;;;;;;;4893967;29;20079;-80
2021/06/19 02:36:40;;;;;;;16.33;5.85;;;;;;;;;;4893310;29;20570;-81
2021/06/19 02:39:26;;;;;;;16.70;6.57;;;;;;;;;;4891197;29;20035;-81
2021/06/19 02:42:11;;;;;;;12.63;6.07;;;;;;;;;;4889576;29;20569;-81
2021/06/19 02:44:56;;;;;;;16.50;5.15;;;;;;;;;;4895484;29;20395;-80
2021/06/19 02:47:45;;;;;;;15.40;6.25;;;;;;;;;;4890405;29;20095;-81
2021/06/19 02:50:32;;;;;;;13.40;6.30;;;;;;;;;;4891175;29;20179;-81
2021/06/19 02:53:17;;;;;;;19.33;6.22;;;;;;;;;;4892950;29;20551;-81
2021/06/19 02:56:02;;;;;;;13.63;5.63;;;;;;;;;;4892136;29;20039;-81
2021/06/19 02:58:48;;;;;;;15.60;6.13;;;;;;;;;;4894397;29;20032;-81
2021/06/19 03:01:33;;;;;;;17.55;7.72;;;;;;;;;;4894695;29;20421;-81
2021/06/19 03:04:20;;;;;;;13.15;6.63;;;;;;;;;;4889435;29;20032;-81
2021/06/19 03:07:05;;;;;;;14.38;7.13;;;;;;;;;;4892805;29;20031;-81
2021/06/19 03:09:50;;;;;;;14.57;5.78;;;;;;;;;;4890804;29;20040;-82
2021/06/19 03:12:36;;;;;;;14.55;5.60;;;;;;;;;;4896301;29;20032;-81
2021/06/19 03:15:21;;;;;;;15.02;5.68;;;;;;;;;;4896278;29;20149;-82
2021/06/19 03:18:06;;;;;;;14.63;7.00;;;;;;;;;;4896090;29;20020;-82
2021/06/19 03:20:51;;;;;;;17.85;6.13;;;;;;;;;;4895378;29;20028;-81
2021/06/19 03:23:37;;;;;;;16.13;6.13;;;;;;;;;;4892977;29;20123;-82
2021/06/19 03:26:22;;;;;;;12.77;6.22;;;;;;;;;;4892897;29;20025;-82
2021/06/19 03:29:07;;;;;;;13.00;6.50;;;;;;;;;;4897401;29;20048;-82
2021/06/19 03:31:52;;;;;;;12.77;6.55;;;;;;;;;;4897193;29;20044;-82
2021/06/19 03:34:38;;;;;;;17.25;6.47;;;;;;;;;;4894748;29;20562;-81
2021/06/19 03:37:23;;;;;;;13.68;6.75;;;;;;;;;;4893196;29;20036;-81
2021/06/19 03:40:09;;;;;;;15.10;6.90;;;;;;;;;;4892286;29;20028;-82
2021/06/19 03:42:55;;;;;;;17.05;6.18;;;;;;;;;;4886108;29;20062;-81
2021/06/19 03:45:40;;;;;;;12.15;6.63;;;;;;;;;;4893376;29;20383;-82
2021/06/19 03:48:25;;;;;;;14.70;6.65;;;;;;;;;;4893527;29;20028;-81
2021/06/19 03:51:11;;;;;;;16.10;6.95;;;;;;;;;;4908878;29;20471;-81
2021/06/19 03:53:56;;;;;;;15.40;6.45;;;;;;;;;;4888599;29;20036;-82
2021/06/19 03:56:42;;;;;;;20.77;7.15;;;;;;;;;;4893808;29;20032;-81
2021/06/19 03:59:27;;;;;;;11.27;5.60;;;;;;;;;;4893281;29;20471;-80
2021/06/19 04:02:12;;;;;;;14.07;6.82;;;;;;;;;;4898638;29;20032;-80
2021/06/19 04:04:57;;;;;;;14.68;7.00;;;;;;;;;;4895866;29;20185;-80
2021/06/19 04:07:44;;;;;;;12.68;6.68;;;;;;;;;;4897062;29;20248;-80
2021/06/19 04:10:29;;;;;;;15.45;7.22;;;;;;;;;;4892752;29;20055;-80
2021/06/19 04:13:14;;;;;;;14.63;7.00;;;;;;;;;;4897771;29;20110;-80
2021/06/19 04:16:00;;;;;;;14.32;6.88;;;;;;;;;;4881412;29;20424;-80
2021/06/19 04:18:45;;;;;;;18.65;6.43;;;;;;;;;;4891541;29;20709;-80
2021/06/19 04:21:30;;;;;;;16.33;6.70;;;;;;;;;;4892558;29;20182;-80
2021/06/19 04:24:18;;;;;;;13.02;6.10;;;;;;;;;;4899593;29;20107;-81
2021/06/19 04:27:04;;;;;;;14.50;6.57;;;;;;;;;;4892199;29;20119;-80
2021/06/19 04:29:49;;;;;;;13.73;6.65;;;;;;;;;;4898130;29;20040;-81
2021/06/19 04:32:35;;;;;;;19.60;7.00;;;;;;;;;;4897014;29;20048;-81
2021/06/19 04:35:21;;;;;;;15.23;7.47;;;;;;;;;;4894070;29;20092;-81
2021/06/19 04:38:06;;;;;;;12.52;6.45;;;;;;;;;;4892687;29;20024;-80
2021/06/19 04:40:58;;;;;;;13.95;7.15;;;;;;;;;;4877258;29;20020;-81
2021/06/19 04:46:32;;;;;;;14.02;7.43;;;;;;;;;;4893170;29;20020;-80
2021/06/19 04:49:18;;;;;;;14.30;7.32;;;;;;;;;;4894176;29;20094;-80
2021/06/19 04:52:03;;;;;;;12.23;6.55;;;;;;;;;;4891825;29;20028;-80
2021/06/19 04:54:49;;;;;;;11.43;6.40;;;;;;;;;;4911293;29;20032;-80
2021/06/19 04:57:34;;;;;;;13.27;6.57;;;;;;;;;;4890471;29;20190;-80
2021/06/19 05:00:20;;;;;;;20.42;8.02;;;;;;;;;;4878971;29;20115;-80
2021/06/19 05:03:05;;;;;;;21.55;7.82;;;;;;;;;;4893134;29;20029;-81
2021/06/19 05:05:53;;;;;;;15.95;7.03;;;;;;;;;;4895324;29;20438;-81
2021/06/19 05:08:39;;;;;;;13.48;6.82;;;;;;;;;;4877372;29;20032;-80
2021/06/19 05:11:24;;;;;;;16.35;6.60;;;;;;;;;;4892363;29;20490;-81
2021/06/19 05:14:09;;;;;;;13.65;7.38;;;;;;;;;;4892520;29;20023;-81
2021/06/19 05:16:55;;;;;;;13.90;6.68;;;;;;;;;;4892272;29;20027;-81
2021/06/19 05:19:40;;;;;;;16.30;7.57;;;;;;;;;;4880137;29;20510;-80
2021/06/19 05:22:25;;;;;;;13.48;6.82;;;;;;;;;;4892929;29;20835;-80
2021/06/19 05:25:12;;;;;;;14.82;6.80;;;;;;;;;;4896051;29;20424;-80
2021/06/19 05:27:58;;;;;;;13.13;6.90;;;;;;;;;;4895401;29;20032;-80
2021/06/19 05:30:43;;;;;;;13.23;7.13;;;;;;;;;;4890742;29;20036;-82
2021/06/19 05:33:28;;;;;;;16.52;6.97;;;;;;;;;;4875601;29;20115;-81
2021/06/19 05:36:13;;;;;;;22.50;7.78;;;;;;;;;;4865052;29;20032;-81
2021/06/19 05:38:59;;;;;;;15.27;6.68;;;;;;;;;;4870291;29;20423;-81
2021/06/19 05:41:44;;;;;;;17.63;7.30;;;;;;;;;;4856119;29;20044;-81
2021/06/19 05:44:29;;;;;;;14.60;7.30;;;;;;;;;;4870881;29;20107;-82
2021/06/19 05:47:15;;;;;;;12.48;7.13;;;;;;;;;;4871452;29;20028;-82
2021/06/19 05:50:00;;;;;;;15.73;6.53;;;;;;;;;;4875822;29;20032;-83
2021/06/19 05:52:45;;;;;;;13.20;6.90;;;;;;;;;;4876001;29;20036;-82
2021/06/19 05:55:31;;;;;;;16.48;7.60;;;;;;;;;;4870223;29;20443;-82
2021/06/19 05:58:16;;;;;;;11.43;6.85;;;;;;;;;;4875364;29;20111;-82
2021/06/19 06:01:01;;;;;;;14.65;6.65;;;;;;;;;;4864917;29;20402;-82
2021/06/19 06:03:48;;;;;;;16.90;7.15;;;;;;;;;;4871413;29;20099;-82
2021/06/19 06:06:33;;;;;;;14.75;7.13;;;;;;;;;;4891679;29;20694;-81
2021/06/19 06:09:19;;;;;;;14.43;6.75;;;;;;;;;;4866806;29;20036;-81
2021/06/19 06:12:05;;;;;;;16.50;7.30;;;;;;;;;;4885146;29;20036;-82
2021/06/19 06:14:50;;;;;;;12.70;6.90;;;;;;;;;;4872743;29;20059;-82
2021/06/19 06:17:36;;;;;;;16.42;6.93;;;;;;;;;;4875135;29;20039;-82
2021/06/19 06:20:22;;;;;;;22.25;7.35;;;;;;;;;;4871268;29;20047;-82
2021/06/19 06:23:07;;;;;;;14.02;6.25;;;;;;;;;;4874014;29;20091;-83
2021/06/19 06:25:53;;;;;;;15.05;7.53;;;;;;;;;;4876894;29;20036;-81
2021/06/19 06:28:39;;;;;;;12.90;6.88;;;;;;;;;;4874133;29;20041;-82
2021/06/19 06:31:24;;;;;;;12.48;6.00;;;;;;;;;;4865359;29;20591;-81
2021/06/19 06:34:09;;;;;;;11.65;7.10;;;;;;;;;;4881321;29;20063;-81
2021/06/19 06:36:55;;;;;;;10.18;6.35;;;;;;;;;;4885964;29;20048;-82
2021/06/19 06:39:40;;;;;;;14.90;6.00;;;;;;;;;;4888219;29;20036;-82
2021/06/19 06:42:25;;;;;;;13.07;6.38;;;;;;;;;;4886857;29;20115;-82
2021/06/19 06:45:11;;;;;;;12.77;6.78;;;;;;;;;;4887818;29;20366;-82
2021/06/19 06:47:57;;;;;;;15.25;5.90;;;;;;;;;;4889542;29;20031;-81
2021/06/19 06:50:42;;;;;;;12.13;6.82;;;;;;;;;;4893490;29;20040;-82
2021/06/19 06:53:28;;;;;;;8.35;5.43;;;;;;;;;;4890416;29;20035;-82
2021/06/19 06:56:13;;;;;;;16.50;6.15;;;;;;;;;;4889953;29;20024;-81
2021/06/19 06:58:58;;;;;;;11.60;5.97;;;;;;;;;;4894778;29;20361;-82
2021/06/19 07:01:46;;;;;;;14.00;5.65;;;;;;;;;;4888312;29;20025;-82
2021/06/19 07:04:50;;;;;;;11.48;5.13;;;;;;;;;;4894026;29;20029;-82
2021/06/19 07:07:57;;;;;;;10.82;5.40;;;;;;;;;;4888613;29;20174;-82
2021/06/19 07:10:54;;;;;;;11.48;5.35;;;;;;;;;;4884387;29;20499;-82
2021/06/19 07:14:21;;;;;;;13.75;5.63;;;;;;;;;;4883660;29;20049;-82
2021/06/19 07:17:10;;;;;;;10.20;5.70;;;;;;;;;;4887824;29;20017;-82
2021/06/19 07:20:02;;;;;;;10.95;5.72;;;;;;;;;;4888905;29;20014;-82
2021/06/19 07:22:48;;;;;;;9.73;4.85;;;;;;;;;;4873167;29;20043;-81
2021/06/19 07:25:33;;;;;;;18.73;10.70;;;;;;;;;;4895666;29;20025;-81
2021/06/19 07:28:18;;;;;;;12.85;7.40;;;;;;;;;;4891359;29;20063;-80
2021/06/19 07:31:04;;;;;;;8.52;4.45;;;;;;;;;;4891653;29;20048;-82
2021/06/19 07:33:49;;;;;;;10.00;4.68;;;;;;;;;;4872064;29;20025;-82
2021/06/19 07:36:34;;;;;;;13.70;5.60;;;;;;;;;;4888620;29;20202;-82
2021/06/19 07:39:20;;;;;;;10.13;4.55;;;;;;;;;;4883335;29;20035;-82
2021/06/19 07:42:05;;;;;;;7.20;4.43;;;;;;;;;;4893218;29;20568;-81
2021/06/19 07:44:50;;;;;;;11.55;5.00;;;;;;;;;;4882768;29;20403;-81
2021/06/19 07:47:36;;;;;;;12.13;5.43;;;;;;;;;;4888660;29;20522;-81
2021/06/19 07:50:21;;;;;;;13.32;4.93;;;;;;;;;;4878027;29;20021;-80
2021/06/19 07:53:07;;;;;;;12.18;5.60;;;;;;;;;;4887338;29;20048;-81
2021/06/19 07:55:52;;;;;;;8.93;5.25;;;;;;;;;;4893063;29;20032;-81
2021/06/19 07:58:37;;;;;;;11.38;6.10;;;;;;;;;;4887984;29;20534;-81
2021/06/19 08:01:23;;;;;;;10.80;4.85;;;;;;;;;;4889256;29;20112;-81
2021/06/19 08:04:08;;;;;;;12.85;5.38;;;;;;;;;;4885823;29;20088;-80
2021/06/19 08:06:54;;;;;;;16.67;5.95;;;;;;;;;;4887458;29;20488;-81
2021/06/19 08:09:39;;;;;;;15.85;6.18;;;;;;;;;;4875075;29;20020;-81
2021/06/19 08:12:24;;;;;;;9.93;4.93;;;;;;;;;;4879380;29;20030;-80
2021/06/19 08:15:10;;;;;;;10.98;4.70;;;;;;;;;;4873639;29;20039;-82
2021/06/19 08:17:55;;;;;;;12.38;5.40;;;;;;;;;;4891973;29;20111;-81
2021/06/19 08:20:41;;;;;;;11.93;5.20;;;;;;;;;;4890812;29;20119;-82
2021/06/19 08:23:26;;;;;;;11.23;5.50;;;;;;;;;;4893293;29;20276;-82
2021/06/19 08:26:12;;;;;;;14.55;6.13;;;;;;;;;;4889337;29;20020;-82
2021/06/19 08:28:57;;;;;;;12.55;5.20;;;;;;;;;;4888254;29;20025;-80
2021/06/19 08:31:43;;;;;;;16.45;5.80;;;;;;;;;;4876795;29;20503;-82
2021/06/19 08:34:28;;;;;;;16.63;5.82;;;;;;;;;;4879001;29;20091;-82
2021/06/19 08:37:14;;;;;;;13.85;7.63;;;;;;;;;;4892761;29;20039;-81
2021/06/19 08:39:59;;;;;;;12.48;5.78;;;;;;;;;;4883009;29;20040;-81
2021/06/19 08:42:44;;;;;;;14.23;5.47;;;;;;;;;;4887326;29;20032;-81
2021/06/19 08:45:30;;;;;;;15.07;5.78;;;;;;;;;;4888910;29;20100;-81
2021/06/19 08:48:17;;;;;;;10.07;5.15;;;;;;;;;;4887704;29;20037;-81
2021/06/19 08:51:03;;;;;;;15.23;8.68;;;;;;;;;;4884501;29;20408;-81
2021/06/19 08:53:49;;;;;;;14.43;8.02;;;;;;;;;;4889964;29;20051;-81
2021/06/19 08:56:44;;;;;;;15.90;6.45;;;;;;;;;;4887959;29;20028;-81
2021/06/19 08:59:29;;;;;;;15.23;6.70;;;;;;;;;;4885349;29;20028;-81
2021/06/19 09:02:29;;;;;;;12.77;6.70;;;;;;;;;;4883929;29;20037;-81
2021/06/19 09:05:16;;;;;;;15.98;6.60;;;;;;;;;;4904651;29;20084;-81
2021/06/19 09:08:19;;;;;;;16.58;6.88;;;;;;;;;;4888766;29;20236;-81
2021/06/19 09:11:26;;;;;;;11.73;6.53;;;;;;;;;;4888496;29;20032;-80
2021/06/19 09:14:24;;;;;;;17.50;13.48;;;;;;;;;;4883773;29;20032;-80
2021/06/19 09:17:12;;;;;;;16.97;8.07;;;;;;;;;;4887909;29;20024;-80
2021/06/19 09:20:07;;;;;;;15.88;6.72;;;;;;;;;;4883079;29;20103;-80
2021/06/19 09:23:01;;;;;;;13.63;6.15;;;;;;;;;;4872375;29;20032;-80
2021/06/19 09:25:46;;;;;;;12.52;6.80;;;;;;;;;;4890349;29;20028;-82
2021/06/19 09:28:32;;;;;;;16.35;7.95;;;;;;;;;;4887011;29;20028;-81
2021/06/19 09:31:39;;;;;;;18.17;6.78;;;;;;;;;;4883204;29;20510;-81
2021/06/19 09:34:56;;;;;;;16.40;6.55;;;;;;;;;;4889370;29;20113;-82
2021/06/19 09:37:48;;;;;;;17.60;6.65;;;;;;;;;;4863890;29;20389;-81
2021/06/19 09:40:43;;;;;;;24.63;13.32;;;;;;;;;;4890214;29;20052;-82
2021/06/19 09:43:46;;;;;;;24.20;10.88;;;;;;;;;;4885007;29;20029;-81
2021/06/19 09:46:34;;;;;;;19.13;7.32;;;;;;;;;;4890452;29;20025;-82
2021/06/19 09:49:31;;;;;;;22.23;9.70;;;;;;;;;;4887341;29;20181;-82
2021/06/19 09:52:29;;;;;;;14.70;6.65;;;;;;;;;;4884026;29;20120;-82
2021/06/19 09:55:25;;;;;;;12.80;6.28;;;;;;;;;;4891443;29;20480;-82
2021/06/19 09:58:31;;;;;;;14.40;7.63;;;;;;;;;;4889296;29;20084;-82
2021/06/19 10:01:30;;;;;;;15.30;7.20;;;;;;;;;;4890137;29;20028;-82
2021/06/19 10:04:18;;;;;;;12.25;7.18;;;;;;;;;;4882469;29;20033;-81
2021/06/19 10:07:05;;;;;;;26.40;16.73;;;;;;;;;;4889429;29;20141;-82
2021/06/19 10:09:53;;;;;;;21.25;10.57;;;;;;;;;;4881035;29;20035;-82
2021/06/19 10:12:38;;;;;;;15.50;6.28;;;;;;;;;;4887065;29;20515;-81
2021/06/19 10:15:24;;;;;;;13.68;6.50;;;;;;;;;;4886466;29;20752;-82
2021/06/19 10:18:12;;;;;;;13.88;7.40;;;;;;;;;;4889261;29;20029;-81
2021/06/19 10:21:00;;;;;;;20.13;7.65;;;;;;;;;;4891391;29;20040;-81
2021/06/19 10:23:53;;;;;;;15.38;6.90;;;;;;;;;;4892871;29;20033;-81
2021/06/19 10:26:42;;;;;;;19.75;7.30;;;;;;;;;;4897788;29;20033;-82
2021/06/19 10:29:36;;;;;;;12.18;6.10;;;;;;;;;;4889364;29;20029;-82
2021/06/19 10:32:40;;;;;;;18.15;6.75;;;;;;;;;;4889482;29;20076;-81
2021/06/19 10:35:45;;;;;;;11.75;5.57;;;;;;;;;;4891226;29;20033;-81
2021/06/19 10:38:31;;;;;;;9.73;5.80;;;;;;;;;;4894685;29;20035;-81
2021/06/19 10:41:18;;;;;;;23.38;6.72;;;;;;;;;;4897477;29;20093;-82
2021/06/19 10:44:03;;;;;;;17.23;6.43;;;;;;;;;;4879619;29;20033;-81
2021/06/19 10:47:00;;;;;;;12.60;5.88;;;;;;;;;;4891462;29;20024;-81
2021/06/19 10:49:45;;;;;;;17.00;5.95;;;;;;;;;;4890898;29;20518;-81
2021/06/19 10:52:33;;;;;;;16.30;6.68;;;;;;;;;;4888298;29;20028;-81
2021/06/19 10:55:25;;;;;;;23.08;6.75;;;;;;;;;;4888122;29;20032;-82
2021/06/19 10:58:18;;;;;;;14.73;5.93;;;;;;;;;;4889331;29;20495;-82
2021/06/19 11:01:33;;;;;;;17.98;5.32;;;;;;;;;;4897164;29;20036;-81
2021/06/19 11:04:40;;;;;;;13.90;6.13;;;;;;;;;;4887842;29;20079;-81
2021/06/19 11:07:28;;;;;;;14.15;5.80;;;;;;;;;;4885115;29;20049;-81
2021/06/19 11:10:32;;;;;;;12.10;5.10;;;;;;;;;;4890562;29;20107;-81
2021/06/19 11:13:27;;;;;;;19.73;6.90;;;;;;;;;;4890705;29;20070;-81
2021/06/19 11:16:43;;;;;;;17.15;6.07;;;;;;;;;;4887095;29;20105;-80
2021/06/19 11:19:39;;;;;;;15.18;6.25;;;;;;;;;;4888507;29;20029;-81
2021/06/19 11:22:25;;;;;;;16.50;6.20;;;;;;;;;;4882470;29;20035;-81
2021/06/19 11:25:25;;;;;;;17.20;6.07;;;;;;;;;;4878775;29;20033;-80
2021/06/19 11:28:10;;;;;;;13.18;5.80;;;;;;;;;;4888164;29;20027;-81
2021/06/19 11:31:03;;;;;;;18.15;7.07;;;;;;;;;;4890606;29;20040;-81
2021/06/19 11:33:49;;;;;;;12.07;6.03;;;;;;;;;;4888789;29;20040;-80
2021/06/19 11:36:35;;;;;;;15.38;5.88;;;;;;;;;;4891395;29;20051;-80
2021/06/19 11:39:31;;;;;;;12.35;5.32;;;;;;;;;;4878175;29;20202;-81
2021/06/19 11:42:16;;;;;;;18.35;5.43;;;;;;;;;;4889356;29;20036;-81
2021/06/19 11:45:01;;;;;;;16.98;7.60;;;;;;;;;;4895314;29;20111;-81
2021/06/19 11:47:58;;;;;;;11.70;6.13;;;;;;;;;;4891498;29;20048;-81
2021/06/19 11:50:45;;;;;;;11.80;5.47;;;;;;;;;;4885440;29;20028;-81
2021/06/19 11:53:39;;;;;;;14.18;4.97;;;;;;;;;;4884900;29;20512;-81
2021/06/19 11:56:28;;;;;;;12.55;5.25;;;;;;;;;;4900378;29;20765;-82
2021/06/19 11:59:14;;;;;;;13.88;5.53;;;;;;;;;;4866336;29;20039;-82
2021/06/19 12:02:00;;;;;;;17.85;4.93;;;;;;;;;;4889032;29;20025;-82
2021/06/19 12:04:45;;;;;;;16.02;5.10;;;;;;;;;;4888491;29;20036;-81
2021/06/19 12:07:30;;;;;;;17.00;5.50;;;;;;;;;;4885789;29;20037;-81
2021/06/19 12:10:22;;;;;;;13.90;5.25;;;;;;;;;;4889003;29;20234;-81
2021/06/19 12:13:07;;;;;;;15.90;6.00;;;;;;;;;;4888121;29;20263;-81
2021/06/19 12:15:53;;;;;;;12.88;5.47;;;;;;;;;;4877556;29;20028;-82
2021/06/19 12:18:38;;;;;;;14.38;5.57;;;;;;;;;;4885714;29;20037;-82
2021/06/19 12:21:29;;;;;;;13.68;5.28;;;;;;;;;;4890872;29;20456;-82
2021/06/19 12:24:33;;;;;;;25.70;18.45;;;;;;;;;;4879082;29;20045;-81
2021/06/19 12:27:25;;;;;;;18.45;5.80;;;;;;;;;;4883582;29;20044;-81
2021/06/19 12:30:26;;;;;;;9.30;4.57;;;;;;;;;;4883770;29;20029;-84
2021/06/19 12:33:11;;;;;;;14.55;4.93;;;;;;;;;;4875067;29;20159;-82
2021/06/19 12:36:07;;;;;;;15.75;4.70;;;;;;;;;;4870773;29;20029;-81
2021/06/19 12:38:53;;;;;;;14.45;5.18;;;;;;;;;;4878797;29;20056;-81
2021/06/19 12:41:41;;;;;;;16.67;4.97;;;;;;;;;;4870338;29;20036;-81
2021/06/19 12:44:26;;;;;;;14.40;4.55;;;;;;;;;;4878017;29;20032;-81
2021/06/19 12:47:16;;;;;;;15.05;4.15;;;;;;;;;;4879012;29;20108;-81
2021/06/19 12:50:04;;;;;;;21.90;5.03;;;;;;;;;;4876415;29;20036;-81
2021/06/19 12:52:53;;;;;;;11.23;4.85;;;;;;;;;;4872716;29;20436;-80
2021/06/19 12:55:39;;;;;;;11.38;4.25;;;;;;;;;;4877057;29;20033;-81
2021/06/19 12:58:46;;;;;;;12.80;5.50;;;;;;;;;;4875566;29;20032;-80
2021/06/19 13:01:55;;;;;;;20.33;7.25;;;;;;;;;;4871741;29;20032;-82
2021/06/19 13:04:43;;;;;;;12.30;4.55;;;;;;;;;;4868170;29;20048;-82
2021/06/19 13:07:49;;;;;;;16.83;5.47;;;;;;;;;;4889222;29;20578;-81
2021/06/19 13:10:37;;;;;;;19.42;5.15;;;;;;;;;;4871680;29;20060;-80
2021/06/19 13:13:49;;;;;;;16.45;5.20;;;;;;;;;;4874992;29;20238;-82
2021/06/19 13:16:39;;;;;;;16.08;5.13;;;;;;;;;;4874841;29;20040;-82
2021/06/19 13:19:31;;;;;;;15.70;5.18;;;;;;;;;;4877177;29;20028;-81
2021/06/19 13:22:25;;;;;;;15.60;5.57;;;;;;;;;;4870658;29;20056;-82
2021/06/19 13:25:13;;;;;;;13.85;5.28;;;;;;;;;;4874066;29;20025;-82
2021/06/19 13:27:58;;;;;;;17.92;5.68;;;;;;;;;;4890569;29;20107;-81
2021/06/19 13:31:03;;;;;;;16.58;5.45;;;;;;;;;;4873647;29;20040;-81
2021/06/19 13:34:00;;;;;;;19.25;5.38;;;;;;;;;;4863806;29;20060;-81
2021/06/19 13:36:49;;;;;;;14.88;5.13;;;;;;;;;;4867814;29;20040;-82
2021/06/19 13:40:03;;;;;;;16.48;4.93;;;;;;;;;;4875853;29;20028;-82
2021/06/19 13:49:58;;;;;;;13.88;5.22;;;;;;;;;;4869825;29;20642;-81
2021/06/19 13:52:51;;;;;;;14.50;5.18;;;;;;;;;;4867001;29;20482;-81
2021/06/19 13:55:45;;;;;;;18.63;5.70;;;;;;;;;;4875227;29;20025;-82
2021/06/19 13:58:33;;;;;;;20.77;7.85;;;;;;;;;;4876340;29;20048;-82
2021/06/19 14:01:22;;;;;;;17.17;5.82;;;;;;;;;;4867181;29;20041;-82
2021/06/19 14:04:09;;;;;;;17.88;5.65;;;;;;;;;;4876452;29;20044;-84
2021/06/19 14:06:54;;;;;;;12.65;5.85;;;;;;;;;;4872856;29;20100;-81
2021/06/19 14:09:42;;;;;;;16.88;4.78;;;;;;;;;;4872022;29;20677;-81
2021/06/19 14:13:03;;;;;;;19.07;6.43;;;;;;;;;;4890192;29;20033;-81
2021/06/19 14:19:20;;;;;;;22.15;5.60;;;;;;;;;;4885167;29;20544;-81
2021/06/19 14:22:09;;;;;;;;;;;;;;;;;;4860546;29;20123;-82
2021/06/19 14:24:54;;;;;;;23.08;6.95;;;;;;;;;;4873459;29;19920;-82
2021/06/19 14:27:39;;;;;;;18.98;6.53;;;;;;;;;;4873605;29;20088;-83
2021/06/19 14:30:37;;;;;;;19.73;6.57;;;;;;;;;;4865280;29;20036;-82
2021/06/19 14:33:31;;;;;;;18.75;5.90;;;;;;;;;;4869295;29;20040;-82
2021/06/19 14:36:20;;;;;;;18.55;6.45;;;;;;;;;;4870464;29;20104;-81
2021/06/19 14:39:05;;;;;;;13.80;5.45;;;;;;;;;;4874621;29;20029;-82
2021/06/19 14:41:54;;;;;;;15.48;6.20;;;;;;;;;;4861183;29;20036;-82
2021/06/19 14:44:42;;;;;;;14.48;5.93;;;;;;;;;;4874562;29;20055;-83
2021/06/19 14:47:30;;;;;;;15.73;7.70;;;;;;;;;;4879433;29;20057;-82
2021/06/19 14:50:15;;;;;;;19.40;10.77;;;;;;;;;;4852816;29;20037;-81
2021/06/19 14:53:19;;;;;;;14.73;5.88;;;;;;;;;;4874525;29;20025;-85
2021/06/19 14:56:15;;;;;;;15.85;5.22;;;;;;;;;;4873247;29;20265;-82
2021/06/19 14:59:03;;;;;;;;;;;;;;;;;;4859465;29;20035;-82
2021/06/19 15:01:48;;;;;;;13.73;6.28;;;;;;;;;;4876026;29;19911;-81
2021/06/19 15:04:34;;;;;;;18.67;6.43;;;;;;;;;;4876023;29;20029;-81
2021/06/19 15:07:19;;;;;;;21.15;12.07;;;;;;;;;;4878628;29;20047;-81
2021/06/19 15:10:05;;;;;;;21.80;7.93;;;;;;;;;;4872950;29;20503;-81
2021/06/19 15:12:50;;;;;;;12.90;5.47;;;;;;;;;;4879091;29;20031;-81
2021/06/19 15:15:35;;;;;;;16.35;6.88;;;;;;;;;;4878317;29;20024;-81
2021/06/19 15:18:21;;;;;;;13.68;6.25;;;;;;;;;;4879610;29;20055;-83
2021/06/19 15:21:06;;;;;;;13.10;5.95;;;;;;;;;;4878012;29;20037;-82
2021/06/19 15:23:51;;;;;;;18.13;6.65;;;;;;;;;;4880861;29;20040;-83
2021/06/19 15:26:37;;;;;;;13.90;6.70;;;;;;;;;;4880453;29;20033;-81
2021/06/19 15:29:22;;;;;;;15.43;5.95;;;;;;;;;;4878073;29;20068;-80
2021/06/19 15:32:08;;;;;;;16.67;6.22;;;;;;;;;;4877564;29;20113;-80
2021/06/19 15:34:53;;;;;;;16.55;6.85;;;;;;;;;;4880121;29;20495;-81
2021/06/19 15:37:38;;;;;;;13.38;6.18;;;;;;;;;;4889853;29;20028;-83
2021/06/19 15:40:24;;;;;;;16.83;6.50;;;;;;;;;;4878030;29;20412;-84
2021/06/19 15:43:12;;;;;;;16.08;6.47;;;;;;;;;;4880361;29;20032;-84
2021/06/19 15:45:57;;;;;;;14.50;6.78;;;;;;;;;;4878555;29;20016;-84
2021/06/19 15:48:48;;;;;;;11.93;6.57;;;;;;;;;;4879204;29;20033;-84
2021/06/19 15:51:34;;;;;;;23.27;7.13;;;;;;;;;;4875235;29;20024;-87
2021/06/19 15:54:23;;;;;;;13.18;6.20;;;;;;;;;;4873752;29;20056;-85
2021/06/19 15:57:08;;;;;;;11.48;6.05;;;;;;;;;;4874524;29;20056;-83
2021/06/19 15:59:56;;;;;;;23.37;13.63;;;;;;;;;;4872122;29;20048;-84
2021/06/19 16:02:44;;;;;;;16.02;6.45;;;;;;;;;;4875782;29;20293;-84
2021/06/19 16:05:33;;;;;;;19.52;7.25;;;;;;;;;;4877205;29;20027;-84
2021/06/19 16:08:18;;;;;;;15.43;5.90;;;;;;;;;;4874835;29;20060;-84
2021/06/19 16:11:07;;;;;;;11.82;5.68;;;;;;;;;;4878311;29;20084;-84
2021/06/19 16:13:55;;;;;;;20.00;6.45;;;;;;;;;;4873012;29;20036;-83
2021/06/19 16:16:46;;;;;;;16.10;7.38;;;;;;;;;;4870487;29;20044;-84
2021/06/19 16:19:31;;;;;;;14.38;6.95;;;;;;;;;;4860337;29;20084;-83
2021/06/19 16:22:17;;;;;;;15.20;7.50;;;;;;;;;;4879452;29;20059;-84
2021/06/19 16:25:02;;;;;;;15.57;7.65;;;;;;;;;;4874275;29;20035;-85
2021/06/19 16:27:47;;;;;;;14.45;6.68;;;;;;;;;;4874771;29;20028;-84
2021/06/19 16:30:44;;;;;;;13.82;7.07;;;;;;;;;;4876428;29;20041;-84
2021/06/19 16:33:32;;;;;;;13.30;5.90;;;;;;;;;;4894815;29;20028;-84
2021/06/19 16:36:18;;;;;;;;;;;;;;;;;;4899284;29;20028;-86
2021/06/19 16:39:35;;;;;;;13.80;6.47;;;;;;;;;;4891944;29;19918;-84
2021/06/19 16:42:24;;;;;;;17.52;7.38;;;;;;;;;;4895440;29;20036;-84
2021/06/19 16:45:09;;;;;;;15.30;6.40;;;;;;;;;;4893447;29;20027;-84
2021/06/19 16:47:58;;;;;;;12.10;6.70;;;;;;;;;;4894474;29;20040;-83
2021/06/19 16:50:46;;;;;;;20.08;6.10;;;;;;;;;;4882753;29;20036;-84